sensor_id;sensor_type;location;lat;lon;timestamp;P1;durP1;ratioP1;P2;durP2;ratioP2
18302;SDS011;9277;37.980;23.748;2023-07-16T00:02:25;6.78;;;3.85;;
18302;SDS011;9277;37.980;23.748;2023-07-16T00:04:52;7.20;;;4.30;;
18302;SDS011;9277;37.980;23.748;2023-07-16T00:07:18;7.25;;;4.57;;
18302;SDS011;9277;37.980;23.748;2023-07-16T00:09:45;7.18;;;4.60;;
18302;SDS011;9277;37.980;23.748;2023-07-16T00:12:12;9.70;;;4.78;;
18302;SDS011;9277;37.980;23.748;2023-07-16T00:14:39;7.35;;;4.70;;
18302;SDS011;9277;37.980;23.748;2023-07-16T00:17:07;9.70;;;4.35;;
18302;SDS011;9277;37.980;23.748;2023-07-16T00:19:34;7.57;;;4.18;;
18302;SDS011;9277;37.980;23.748;2023-07-16T00:22:01;8.77;;;4.10;;
18302;SDS011;9277;37.980;23.748;2023-07-16T00:24:27;6.00;;;3.90;;
18302;SDS011;9277;37.980;23.748;2023-07-16T00:26:54;6.47;;;4.90;;
18302;SDS011;9277;37.980;23.748;2023-07-16T00:29:21;7.32;;;4.70;;
18302;SDS011;9277;37.980;23.748;2023-07-16T00:31:47;7.15;;;4.60;;
18302;SDS011;9277;37.980;23.748;2023-07-16T00:34:16;7.85;;;4.40;;
18302;SDS011;9277;37.980;23.748;2023-07-16T00:36:42;11.00;;;5.13;;
18302;SDS011;9277;37.980;23.748;2023-07-16T00:39:09;5.20;;;4.32;;
18302;SDS011;9277;37.980;23.748;2023-07-16T00:41:36;8.48;;;4.88;;
18302;SDS011;9277;37.980;23.748;2023-07-16T00:44:03;10.80;;;4.82;;
18302;SDS011;9277;37.980;23.748;2023-07-16T00:46:30;18.60;;;5.05;;
18302;SDS011;9277;37.980;23.748;2023-07-16T00:48:57;14.95;;;4.68;;
18302;SDS011;9277;37.980;23.748;2023-07-16T00:51:25;11.15;;;4.55;;
18302;SDS011;9277;37.980;23.748;2023-07-16T00:53:52;9.18;;;4.55;;
18302;SDS011;9277;37.980;23.748;2023-07-16T00:56:19;7.57;;;4.88;;
18302;SDS011;9277;37.980;23.748;2023-07-16T00:58:46;8.30;;;4.55;;
18302;SDS011;9277;37.980;23.748;2023-07-16T01:01:13;7.95;;;4.65;;
18302;SDS011;9277;37.980;23.748;2023-07-16T01:03:39;9.02;;;5.00;;
18302;SDS011;9277;37.980;23.748;2023-07-16T01:06:08;7.57;;;4.57;;
18302;SDS011;9277;37.980;23.748;2023-07-16T01:08:41;8.88;;;5.00;;
18302;SDS011;9277;37.980;23.748;2023-07-16T01:11:08;8.23;;;4.70;;
18302;SDS011;9277;37.980;23.748;2023-07-16T01:13:35;9.55;;;5.00;;
18302;SDS011;9277;37.980;23.748;2023-07-16T01:16:02;9.07;;;4.90;;
18302;SDS011;9277;37.980;23.748;2023-07-16T01:18:29;7.88;;;4.45;;
18302;SDS011;9277;37.980;23.748;2023-07-16T01:20:56;10.30;;;4.97;;
18302;SDS011;9277;37.980;23.748;2023-07-16T01:26:17;10.60;;;5.20;;
18302;SDS011;9277;37.980;23.748;2023-07-16T01:31:29;15.85;;;5.25;;
18302;SDS011;9277;37.980;23.748;2023-07-16T01:33:56;9.55;;;4.80;;
18302;SDS011;9277;37.980;23.748;2023-07-16T01:36:22;9.27;;;4.60;;
18302;SDS011;9277;37.980;23.748;2023-07-16T01:38:50;12.85;;;5.43;;
18302;SDS011;9277;37.980;23.748;2023-07-16T01:41:17;8.38;;;4.80;;
18302;SDS011;9277;37.980;23.748;2023-07-16T01:43:45;7.65;;;4.93;;
18302;SDS011;9277;37.980;23.748;2023-07-16T01:46:11;5.88;;;4.15;;
18302;SDS011;9277;37.980;23.748;2023-07-16T01:48:40;9.45;;;4.82;;
18302;SDS011;9277;37.980;23.748;2023-07-16T01:51:06;8.45;;;5.32;;
18302;SDS011;9277;37.980;23.748;2023-07-16T01:53:33;8.90;;;4.40;;
18302;SDS011;9277;37.980;23.748;2023-07-16T01:56:00;9.30;;;4.90;;
18302;SDS011;9277;37.980;23.748;2023-07-16T01:58:27;13.70;;;5.05;;
18302;SDS011;9277;37.980;23.748;2023-07-16T02:00:54;9.95;;;5.10;;
18302;SDS011;9277;37.980;23.748;2023-07-16T02:03:20;8.30;;;4.95;;
18302;SDS011;9277;37.980;23.748;2023-07-16T02:05:49;10.43;;;4.97;;
18302;SDS011;9277;37.980;23.748;2023-07-16T02:08:16;8.30;;;4.72;;
18302;SDS011;9277;37.980;23.748;2023-07-16T02:10:43;7.32;;;4.45;;
18302;SDS011;9277;37.980;23.748;2023-07-16T02:13:09;8.25;;;4.78;;
18302;SDS011;9277;37.980;23.748;2023-07-16T02:15:36;7.60;;;4.88;;
18302;SDS011;9277;37.980;23.748;2023-07-16T02:18:03;9.57;;;4.50;;
18302;SDS011;9277;37.980;23.748;2023-07-16T02:20:30;7.63;;;5.10;;
18302;SDS011;9277;37.980;23.748;2023-07-16T02:22:58;9.52;;;5.03;;
18302;SDS011;9277;37.980;23.748;2023-07-16T02:25:25;12.70;;;5.72;;
18302;SDS011;9277;37.980;23.748;2023-07-16T02:27:52;7.70;;;5.10;;
18302;SDS011;9277;37.980;23.748;2023-07-16T02:30:18;6.88;;;5.00;;
18302;SDS011;9277;37.980;23.748;2023-07-16T02:32:45;10.18;;;5.63;;
18302;SDS011;9277;37.980;23.748;2023-07-16T02:35:12;11.93;;;4.85;;
18302;SDS011;9277;37.980;23.748;2023-07-16T02:37:38;10.13;;;4.85;;
18302;SDS011;9277;37.980;23.748;2023-07-16T02:40:07;6.53;;;4.72;;
18302;SDS011;9277;37.980;23.748;2023-07-16T02:42:34;9.48;;;4.63;;
18302;SDS011;9277;37.980;23.748;2023-07-16T02:45:01;7.50;;;5.13;;
18302;SDS011;9277;37.980;23.748;2023-07-16T02:47:28;7.78;;;5.03;;
18302;SDS011;9277;37.980;23.748;2023-07-16T02:49:55;13.40;;;4.82;;
18302;SDS011;9277;37.980;23.748;2023-07-16T02:52:21;9.05;;;4.82;;
18302;SDS011;9277;37.980;23.748;2023-07-16T02:54:48;9.73;;;5.05;;
18302;SDS011;9277;37.980;23.748;2023-07-16T02:57:16;14.45;;;5.55;;
18302;SDS011;9277;37.980;23.748;2023-07-16T02:59:43;11.43;;;5.03;;
18302;SDS011;9277;37.980;23.748;2023-07-16T03:02:10;10.20;;;4.68;;
18302;SDS011;9277;37.980;23.748;2023-07-16T03:04:37;8.98;;;5.00;;
18302;SDS011;9277;37.980;23.748;2023-07-16T03:07:04;14.90;;;5.28;;
18302;SDS011;9277;37.980;23.748;2023-07-16T03:09:31;9.52;;;4.90;;
18302;SDS011;9277;37.980;23.748;2023-07-16T03:11:57;10.52;;;5.32;;
18302;SDS011;9277;37.980;23.748;2023-07-16T03:14:25;11.40;;;5.03;;
18302;SDS011;9277;37.980;23.748;2023-07-16T03:16:52;13.93;;;4.70;;
18302;SDS011;9277;37.980;23.748;2023-07-16T03:19:19;8.27;;;5.05;;
18302;SDS011;9277;37.980;23.748;2023-07-16T03:21:46;9.13;;;5.35;;
18302;SDS011;9277;37.980;23.748;2023-07-16T03:24:14;18.73;;;5.43;;
18302;SDS011;9277;37.980;23.748;2023-07-16T03:26:40;8.88;;;5.28;;
18302;SDS011;9277;37.980;23.748;2023-07-16T03:29:07;8.63;;;5.10;;
18302;SDS011;9277;37.980;23.748;2023-07-16T03:31:36;10.73;;;4.80;;
18302;SDS011;9277;37.980;23.748;2023-07-16T03:34:02;15.77;;;5.03;;
18302;SDS011;9277;37.980;23.748;2023-07-16T03:36:29;10.70;;;4.30;;
18302;SDS011;9277;37.980;23.748;2023-07-16T03:38:56;12.45;;;5.03;;
18302;SDS011;9277;37.980;23.748;2023-07-16T03:41:23;12.27;;;4.53;;
18302;SDS011;9277;37.980;23.748;2023-07-16T03:43:49;9.45;;;4.70;;
18302;SDS011;9277;37.980;23.748;2023-07-16T03:46:16;6.40;;;4.82;;
18302;SDS011;9277;37.980;23.748;2023-07-16T03:48:44;11.00;;;5.05;;
18302;SDS011;9277;37.980;23.748;2023-07-16T03:51:11;7.10;;;4.53;;
18302;SDS011;9277;37.980;23.748;2023-07-16T03:53:37;7.68;;;4.85;;
18302;SDS011;9277;37.980;23.748;2023-07-16T03:56:04;10.93;;;4.85;;
18302;SDS011;9277;37.980;23.748;2023-07-16T03:58:31;8.60;;;4.70;;
18302;SDS011;9277;37.980;23.748;2023-07-16T04:00:58;10.10;;;4.47;;
18302;SDS011;9277;37.980;23.748;2023-07-16T04:03:24;6.95;;;4.55;;
18302;SDS011;9277;37.980;23.748;2023-07-16T04:05:52;7.30;;;4.55;;
18302;SDS011;9277;37.980;23.748;2023-07-16T04:08:27;5.82;;;4.07;;
18302;SDS011;9277;37.980;23.748;2023-07-16T04:10:53;8.93;;;4.55;;
18302;SDS011;9277;37.980;23.748;2023-07-16T04:13:20;6.07;;;4.28;;
18302;SDS011;9277;37.980;23.748;2023-07-16T04:15:47;7.22;;;4.20;;
18302;SDS011;9277;37.980;23.748;2023-07-16T04:18:14;8.90;;;4.63;;
18302;SDS011;9277;37.980;23.748;2023-07-16T04:20:41;6.75;;;4.50;;
18302;SDS011;9277;37.980;23.748;2023-07-16T04:23:09;10.30;;;4.72;;
18302;SDS011;9277;37.980;23.748;2023-07-16T04:25:35;7.60;;;4.25;;
18302;SDS011;9277;37.980;23.748;2023-07-16T04:28:02;8.98;;;4.88;;
18302;SDS011;9277;37.980;23.748;2023-07-16T04:30:29;7.45;;;4.43;;
18302;SDS011;9277;37.980;23.748;2023-07-16T04:32:56;6.38;;;4.43;;
18302;SDS011;9277;37.980;23.748;2023-07-16T04:35:23;7.32;;;3.83;;
18302;SDS011;9277;37.980;23.748;2023-07-16T04:37:49;10.68;;;4.13;;
18302;SDS011;9277;37.980;23.748;2023-07-16T04:40:18;10.77;;;4.50;;
18302;SDS011;9277;37.980;23.748;2023-07-16T04:42:45;6.88;;;4.40;;
18302;SDS011;9277;37.980;23.748;2023-07-16T04:45:12;9.18;;;4.53;;
18302;SDS011;9277;37.980;23.748;2023-07-16T04:47:40;8.90;;;4.40;;
18302;SDS011;9277;37.980;23.748;2023-07-16T04:50:06;11.43;;;4.47;;
18302;SDS011;9277;37.980;23.748;2023-07-16T04:52:33;5.57;;;3.78;;
18302;SDS011;9277;37.980;23.748;2023-07-16T04:55:00;4.47;;;3.75;;
18302;SDS011;9277;37.980;23.748;2023-07-16T04:57:28;6.78;;;4.20;;
18302;SDS011;9277;37.980;23.748;2023-07-16T04:59:55;7.93;;;4.32;;
18302;SDS011;9277;37.980;23.748;2023-07-16T05:02:21;5.82;;;3.88;;
18302;SDS011;9277;37.980;23.748;2023-07-16T05:04:48;5.53;;;3.33;;
18302;SDS011;9277;37.980;23.748;2023-07-16T05:07:15;7.22;;;3.65;;
18302;SDS011;9277;37.980;23.748;2023-07-16T05:09:41;8.02;;;4.20;;
18302;SDS011;9277;37.980;23.748;2023-07-16T05:12:08;8.00;;;3.90;;
18302;SDS011;9277;37.980;23.748;2023-07-16T05:14:44;8.40;;;4.00;;
18302;SDS011;9277;37.980;23.748;2023-07-16T05:17:11;5.80;;;3.63;;
18302;SDS011;9277;37.980;23.748;2023-07-16T05:19:38;6.90;;;4.22;;
18302;SDS011;9277;37.980;23.748;2023-07-16T05:22:05;5.28;;;4.22;;
18302;SDS011;9277;37.980;23.748;2023-07-16T05:24:32;8.18;;;3.40;;
18302;SDS011;9277;37.980;23.748;2023-07-16T05:26:59;4.20;;;3.10;;
18302;SDS011;9277;37.980;23.748;2023-07-16T05:29:26;4.13;;;3.45;;
18302;SDS011;9277;37.980;23.748;2023-07-16T05:31:54;11.05;;;4.13;;
18302;SDS011;9277;37.980;23.748;2023-07-16T05:34:21;5.25;;;3.60;;
18302;SDS011;9277;37.980;23.748;2023-07-16T05:36:48;6.13;;;3.60;;
18302;SDS011;9277;37.980;23.748;2023-07-16T05:39:15;6.35;;;3.50;;
18302;SDS011;9277;37.980;23.748;2023-07-16T05:41:42;8.35;;;4.00;;
18302;SDS011;9277;37.980;23.748;2023-07-16T05:44:09;7.03;;;3.63;;
18302;SDS011;9277;37.980;23.748;2023-07-16T05:46:36;5.80;;;3.70;;
18302;SDS011;9277;37.980;23.748;2023-07-16T05:49:05;11.13;;;4.05;;
18302;SDS011;9277;37.980;23.748;2023-07-16T05:51:31;6.25;;;3.10;;
18302;SDS011;9277;37.980;23.748;2023-07-16T05:54:00;6.65;;;3.90;;
18302;SDS011;9277;37.980;23.748;2023-07-16T05:56:27;7.90;;;3.63;;
18302;SDS011;9277;37.980;23.748;2023-07-16T05:58:54;4.20;;;3.67;;
18302;SDS011;9277;37.980;23.748;2023-07-16T06:01:21;3.53;;;3.13;;
18302;SDS011;9277;37.980;23.748;2023-07-16T06:03:48;7.00;;;3.47;;
18302;SDS011;9277;37.980;23.748;2023-07-16T06:06:16;3.53;;;2.88;;
18302;SDS011;9277;37.980;23.748;2023-07-16T06:08:42;5.40;;;3.00;;
18302;SDS011;9277;37.980;23.748;2023-07-16T06:11:09;6.07;;;2.70;;
18302;SDS011;9277;37.980;23.748;2023-07-16T06:13:36;5.35;;;3.03;;
18302;SDS011;9277;37.980;23.748;2023-07-16T06:16:03;4.93;;;3.00;;
18302;SDS011;9277;37.980;23.748;2023-07-16T06:18:30;6.20;;;3.30;;
18302;SDS011;9277;37.980;23.748;2023-07-16T06:20:57;3.85;;;3.30;;
18302;SDS011;9277;37.980;23.748;2023-07-16T06:23:25;3.08;;;2.65;;
18302;SDS011;9277;37.980;23.748;2023-07-16T06:25:53;5.63;;;3.20;;
18302;SDS011;9277;37.980;23.748;2023-07-16T06:28:20;7.32;;;2.78;;
18302;SDS011;9277;37.980;23.748;2023-07-16T06:30:47;5.82;;;3.22;;
18302;SDS011;9277;37.980;23.748;2023-07-16T06:33:14;8.13;;;3.22;;
18302;SDS011;9277;37.980;23.748;2023-07-16T06:35:43;4.80;;;2.97;;
18302;SDS011;9277;37.980;23.748;2023-07-16T06:38:10;6.95;;;3.05;;
18302;SDS011;9277;37.980;23.748;2023-07-16T06:40:38;4.88;;;3.03;;
18302;SDS011;9277;37.980;23.748;2023-07-16T06:43:05;6.80;;;3.55;;
18302;SDS011;9277;37.980;23.748;2023-07-16T06:45:31;4.53;;;3.15;;
18302;SDS011;9277;37.980;23.748;2023-07-16T06:47:58;7.28;;;3.40;;
18302;SDS011;9277;37.980;23.748;2023-07-16T06:50:25;5.22;;;3.20;;
18302;SDS011;9277;37.980;23.748;2023-07-16T06:52:52;3.95;;;3.38;;
18302;SDS011;9277;37.980;23.748;2023-07-16T06:55:18;4.55;;;3.40;;
18302;SDS011;9277;37.980;23.748;2023-07-16T06:57:46;7.80;;;3.65;;
18302;SDS011;9277;37.980;23.748;2023-07-16T07:00:13;6.35;;;3.10;;
18302;SDS011;9277;37.980;23.748;2023-07-16T07:02:40;10.18;;;3.85;;
18302;SDS011;9277;37.980;23.748;2023-07-16T07:05:07;6.30;;;3.75;;
18302;SDS011;9277;37.980;23.748;2023-07-16T07:07:34;5.72;;;2.97;;
18302;SDS011;9277;37.980;23.748;2023-07-16T07:10:00;4.60;;;3.40;;
18302;SDS011;9277;37.980;23.748;2023-07-16T07:12:27;3.67;;;3.25;;
18302;SDS011;9277;37.980;23.748;2023-07-16T07:14:55;4.47;;;3.22;;
18302;SDS011;9277;37.980;23.748;2023-07-16T07:17:22;4.03;;;2.85;;
18302;SDS011;9277;37.980;23.748;2023-07-16T07:19:48;5.00;;;3.00;;
18302;SDS011;9277;37.980;23.748;2023-07-16T07:22:15;4.85;;;3.00;;
18302;SDS011;9277;37.980;23.748;2023-07-16T07:24:42;6.03;;;3.05;;
18302;SDS011;9277;37.980;23.748;2023-07-16T07:27:09;5.85;;;3.00;;
18302;SDS011;9277;37.980;23.748;2023-07-16T07:29:36;3.33;;;2.97;;
18302;SDS011;9277;37.980;23.748;2023-07-16T07:32:05;4.47;;;3.03;;
18302;SDS011;9277;37.980;23.748;2023-07-16T07:34:32;8.07;;;3.30;;
18302;SDS011;9277;37.980;23.748;2023-07-16T07:36:58;5.07;;;3.42;;
18302;SDS011;9277;37.980;23.748;2023-07-16T07:39:25;4.22;;;3.60;;
18302;SDS011;9277;37.980;23.748;2023-07-16T07:41:52;8.25;;;3.17;;
18302;SDS011;9277;37.980;23.748;2023-07-16T07:44:18;3.30;;;2.85;;
18302;SDS011;9277;37.980;23.748;2023-07-16T07:46:45;5.40;;;3.00;;
18302;SDS011;9277;37.980;23.748;2023-07-16T07:49:13;4.57;;;3.22;;
18302;SDS011;9277;37.980;23.748;2023-07-16T07:51:40;6.95;;;3.10;;
18302;SDS011;9277;37.980;23.748;2023-07-16T07:54:06;3.55;;;2.92;;
18302;SDS011;9277;37.980;23.748;2023-07-16T07:56:33;2.92;;;2.63;;
18302;SDS011;9277;37.980;23.748;2023-07-16T07:59:00;3.17;;;2.80;;
18302;SDS011;9277;37.980;23.748;2023-07-16T08:01:27;6.05;;;3.05;;
18302;SDS011;9277;37.980;23.748;2023-07-16T08:03:54;3.47;;;2.85;;
18302;SDS011;9277;37.980;23.748;2023-07-16T08:06:22;8.57;;;2.90;;
18302;SDS011;9277;37.980;23.748;2023-07-16T08:08:49;3.90;;;2.90;;
18302;SDS011;9277;37.980;23.748;2023-07-16T08:11:16;7.40;;;3.53;;
18302;SDS011;9277;37.980;23.748;2023-07-16T08:13:42;5.30;;;3.00;;
18302;SDS011;9277;37.980;23.748;2023-07-16T08:16:09;3.47;;;3.10;;
18302;SDS011;9277;37.980;23.748;2023-07-16T08:18:36;4.68;;;3.17;;
18302;SDS011;9277;37.980;23.748;2023-07-16T08:21:03;3.40;;;3.10;;
18302;SDS011;9277;37.980;23.748;2023-07-16T08:23:31;3.90;;;3.20;;
18302;SDS011;9277;37.980;23.748;2023-07-16T08:25:58;3.65;;;3.28;;
18302;SDS011;9277;37.980;23.748;2023-07-16T08:28:24;5.60;;;3.38;;
18302;SDS011;9277;37.980;23.748;2023-07-16T08:30:52;4.00;;;3.50;;
18302;SDS011;9277;37.980;23.748;2023-07-16T08:33:18;4.50;;;3.42;;
18302;SDS011;9277;37.980;23.748;2023-07-16T08:35:45;3.80;;;3.05;;
18302;SDS011;9277;37.980;23.748;2023-07-16T08:38:12;5.72;;;3.10;;
18302;SDS011;9277;37.980;23.748;2023-07-16T08:40:40;5.18;;;3.25;;
18302;SDS011;9277;37.980;23.748;2023-07-16T08:43:08;3.38;;;2.97;;
18302;SDS011;9277;37.980;23.748;2023-07-16T08:45:38;13.18;;;3.70;;
18302;SDS011;9277;37.980;23.748;2023-07-16T08:48:06;6.22;;;3.38;;
18302;SDS011;9277;37.980;23.748;2023-07-16T08:50:33;6.63;;;3.40;;
18302;SDS011;9277;37.980;23.748;2023-07-16T08:53:01;5.35;;;3.28;;
18302;SDS011;9277;37.980;23.748;2023-07-16T08:55:28;5.15;;;3.67;;
18302;SDS011;9277;37.980;23.748;2023-07-16T08:57:56;6.50;;;3.15;;
18302;SDS011;9277;37.980;23.748;2023-07-16T09:00:23;4.13;;;3.28;;
18302;SDS011;9277;37.980;23.748;2023-07-16T09:02:52;5.65;;;3.28;;
18302;SDS011;9277;37.980;23.748;2023-07-16T09:05:18;6.65;;;3.58;;
18302;SDS011;9277;37.980;23.748;2023-07-16T09:07:46;8.88;;;3.10;;
18302;SDS011;9277;37.980;23.748;2023-07-16T09:10:12;4.13;;;3.25;;
18302;SDS011;9277;37.980;23.748;2023-07-16T09:12:41;4.80;;;3.08;;
18302;SDS011;9277;37.980;23.748;2023-07-16T09:15:10;8.45;;;3.30;;
18302;SDS011;9277;37.980;23.748;2023-07-16T09:17:36;6.00;;;3.00;;
18302;SDS011;9277;37.980;23.748;2023-07-16T09:20:04;3.47;;;3.17;;
18302;SDS011;9277;37.980;23.748;2023-07-16T09:22:32;3.65;;;2.97;;
18302;SDS011;9277;37.980;23.748;2023-07-16T09:24:59;7.05;;;3.17;;
18302;SDS011;9277;37.980;23.748;2023-07-16T09:27:27;5.65;;;2.90;;
18302;SDS011;9277;37.980;23.748;2023-07-16T09:29:54;4.40;;;3.35;;
18302;SDS011;9277;37.980;23.748;2023-07-16T09:32:22;4.80;;;3.00;;
18302;SDS011;9277;37.980;23.748;2023-07-16T09:34:49;5.07;;;3.17;;
18302;SDS011;9277;37.980;23.748;2023-07-16T09:37:17;3.70;;;3.30;;
18302;SDS011;9277;37.980;23.748;2023-07-16T09:39:44;6.25;;;3.42;;
18302;SDS011;9277;37.980;23.748;2023-07-16T09:42:12;5.47;;;3.17;;
18302;SDS011;9277;37.980;23.748;2023-07-16T09:44:40;9.77;;;3.08;;
18302;SDS011;9277;37.980;23.748;2023-07-16T09:47:08;5.70;;;3.20;;
18302;SDS011;9277;37.980;23.748;2023-07-16T09:49:36;4.95;;;3.05;;
18302;SDS011;9277;37.980;23.748;2023-07-16T09:52:03;7.13;;;3.20;;
18302;SDS011;9277;37.980;23.748;2023-07-16T09:54:30;3.75;;;3.20;;
18302;SDS011;9277;37.980;23.748;2023-07-16T09:56:58;5.28;;;2.90;;
18302;SDS011;9277;37.980;23.748;2023-07-16T09:59:27;4.50;;;3.60;;
18302;SDS011;9277;37.980;23.748;2023-07-16T10:01:55;5.22;;;3.30;;
18302;SDS011;9277;37.980;23.748;2023-07-16T10:04:22;7.90;;;3.47;;
18302;SDS011;9277;37.980;23.748;2023-07-16T10:06:51;4.63;;;3.33;;
18302;SDS011;9277;37.980;23.748;2023-07-16T10:09:37;8.73;;;3.50;;
18302;SDS011;9277;37.980;23.748;2023-07-16T10:14:48;4.05;;;3.35;;
18302;SDS011;9277;37.980;23.748;2023-07-16T10:17:16;5.32;;;3.35;;
18302;SDS011;9277;37.980;23.748;2023-07-16T10:19:46;5.95;;;2.92;;
18302;SDS011;9277;37.980;23.748;2023-07-16T10:22:14;7.25;;;3.42;;
18302;SDS011;9277;37.980;23.748;2023-07-16T10:24:41;7.43;;;3.33;;
18302;SDS011;9277;37.980;23.748;2023-07-16T10:27:09;11.77;;;3.60;;
18302;SDS011;9277;37.980;23.748;2023-07-16T10:29:35;5.13;;;4.07;;
18302;SDS011;9277;37.980;23.748;2023-07-16T10:32:02;5.00;;;2.90;;
18302;SDS011;9277;37.980;23.748;2023-07-16T10:34:29;5.63;;;3.63;;
18302;SDS011;9277;37.980;23.748;2023-07-16T10:36:56;9.68;;;4.22;;
18302;SDS011;9277;37.980;23.748;2023-07-16T10:39:27;4.43;;;3.47;;
18302;SDS011;9277;37.980;23.748;2023-07-16T10:41:54;7.05;;;3.05;;
18302;SDS011;9277;37.980;23.748;2023-07-16T10:44:23;4.00;;;3.03;;
18302;SDS011;9277;37.980;23.748;2023-07-16T10:46:49;7.53;;;3.65;;
18302;SDS011;9277;37.980;23.748;2023-07-16T10:49:26;6.35;;;3.60;;
18302;SDS011;9277;37.980;23.748;2023-07-16T10:51:52;3.85;;;3.47;;
18302;SDS011;9277;37.980;23.748;2023-07-16T10:54:19;4.47;;;3.08;;
18302;SDS011;9277;37.980;23.748;2023-07-16T10:56:49;8.13;;;3.45;;
18302;SDS011;9277;37.980;23.748;2023-07-16T10:59:16;3.75;;;2.83;;
18302;SDS011;9277;37.980;23.748;2023-07-16T11:01:43;3.22;;;2.92;;
18302;SDS011;9277;37.980;23.748;2023-07-16T11:04:10;3.92;;;3.40;;
18302;SDS011;9277;37.980;23.748;2023-07-16T11:06:37;6.40;;;3.35;;
18302;SDS011;9277;37.980;23.748;2023-07-16T11:09:06;5.80;;;3.50;;
18302;SDS011;9277;37.980;23.748;2023-07-16T11:11:34;7.30;;;3.75;;
18302;SDS011;9277;37.980;23.748;2023-07-16T11:14:04;3.97;;;3.20;;
18302;SDS011;9277;37.980;23.748;2023-07-16T11:16:32;3.80;;;3.22;;
18302;SDS011;9277;37.980;23.748;2023-07-16T11:19:00;3.22;;;2.92;;
18302;SDS011;9277;37.980;23.748;2023-07-16T11:21:27;4.95;;;3.60;;
18302;SDS011;9277;37.980;23.748;2023-07-16T11:23:54;5.00;;;3.58;;
18302;SDS011;9277;37.980;23.748;2023-07-16T11:26:21;5.95;;;3.33;;
18302;SDS011;9277;37.980;23.748;2023-07-16T11:28:49;3.33;;;2.90;;
18302;SDS011;9277;37.980;23.748;2023-07-16T11:31:17;4.70;;;3.13;;
18302;SDS011;9277;37.980;23.748;2023-07-16T11:33:44;5.63;;;3.20;;
18302;SDS011;9277;37.980;23.748;2023-07-16T11:36:11;5.22;;;3.05;;
18302;SDS011;9277;37.980;23.748;2023-07-16T11:38:37;6.15;;;3.30;;
18302;SDS011;9277;37.980;23.748;2023-07-16T11:41:04;3.38;;;3.10;;
18302;SDS011;9277;37.980;23.748;2023-07-16T11:43:33;3.42;;;3.13;;
18302;SDS011;9277;37.980;23.748;2023-07-16T11:46:00;10.05;;;3.17;;
18302;SDS011;9277;37.980;23.748;2023-07-16T11:48:28;7.35;;;3.15;;
18302;SDS011;9277;37.980;23.748;2023-07-16T11:50:55;3.13;;;2.83;;
18302;SDS011;9277;37.980;23.748;2023-07-16T11:53:21;6.80;;;3.28;;
18302;SDS011;9277;37.980;23.748;2023-07-16T11:55:48;4.78;;;3.17;;
18302;SDS011;9277;37.980;23.748;2023-07-16T11:58:15;7.30;;;3.25;;
18302;SDS011;9277;37.980;23.748;2023-07-16T12:00:41;6.60;;;2.95;;
18302;SDS011;9277;37.980;23.748;2023-07-16T12:03:08;6.53;;;3.30;;
18302;SDS011;9277;37.980;23.748;2023-07-16T12:05:36;4.15;;;3.10;;
18302;SDS011;9277;37.980;23.748;2023-07-16T12:08:03;5.35;;;3.50;;
18302;SDS011;9277;37.980;23.748;2023-07-16T12:10:30;3.50;;;3.20;;
18302;SDS011;9277;37.980;23.748;2023-07-16T12:12:57;4.97;;;3.83;;
18302;SDS011;9277;37.980;23.748;2023-07-16T12:15:24;6.47;;;3.67;;
18302;SDS011;9277;37.980;23.748;2023-07-16T12:17:50;6.45;;;3.03;;
18302;SDS011;9277;37.980;23.748;2023-07-16T12:20:17;5.80;;;3.20;;
18302;SDS011;9277;37.980;23.748;2023-07-16T12:22:45;3.70;;;3.30;;
18302;SDS011;9277;37.980;23.748;2023-07-16T12:25:12;4.78;;;3.42;;
18302;SDS011;9277;37.980;23.748;2023-07-16T12:27:39;4.00;;;3.50;;
18302;SDS011;9277;37.980;23.748;2023-07-16T12:30:06;6.22;;;3.25;;
18302;SDS011;9277;37.980;23.748;2023-07-16T12:32:33;3.65;;;3.08;;
18302;SDS011;9277;37.980;23.748;2023-07-16T12:35:00;4.90;;;3.20;;
18302;SDS011;9277;37.980;23.748;2023-07-16T12:37:26;5.95;;;3.33;;
18302;SDS011;9277;37.980;23.748;2023-07-16T12:39:54;4.63;;;3.25;;
18302;SDS011;9277;37.980;23.748;2023-07-16T12:42:21;4.03;;;3.55;;
18302;SDS011;9277;37.980;23.748;2023-07-16T12:44:48;5.55;;;3.05;;
18302;SDS011;9277;37.980;23.748;2023-07-16T12:47:15;7.50;;;3.90;;
18302;SDS011;9277;37.980;23.748;2023-07-16T12:49:42;4.97;;;3.35;;
18302;SDS011;9277;37.980;23.748;2023-07-16T12:52:08;3.97;;;3.10;;
18302;SDS011;9277;37.980;23.748;2023-07-16T12:54:35;5.63;;;3.42;;
18302;SDS011;9277;37.980;23.748;2023-07-16T12:57:04;5.72;;;3.28;;
18302;SDS011;9277;37.980;23.748;2023-07-16T12:59:30;4.50;;;3.13;;
18302;SDS011;9277;37.980;23.748;2023-07-16T13:01:57;4.18;;;3.25;;
18302;SDS011;9277;37.980;23.748;2023-07-16T13:04:24;3.67;;;3.13;;
18302;SDS011;9277;37.980;23.748;2023-07-16T13:06:51;3.65;;;3.05;;
18302;SDS011;9277;37.980;23.748;2023-07-16T13:09:17;3.70;;;3.10;;
18302;SDS011;9277;37.980;23.748;2023-07-16T13:11:44;5.22;;;3.38;;
18302;SDS011;9277;37.980;23.748;2023-07-16T13:14:12;7.15;;;3.45;;
18302;SDS011;9277;37.980;23.748;2023-07-16T13:16:39;7.30;;;3.55;;
18302;SDS011;9277;37.980;23.748;2023-07-16T13:19:05;4.43;;;3.10;;
18302;SDS011;9277;37.980;23.748;2023-07-16T13:21:32;5.75;;;3.28;;
18302;SDS011;9277;37.980;23.748;2023-07-16T13:23:59;5.68;;;3.30;;
18302;SDS011;9277;37.980;23.748;2023-07-16T13:26:26;7.47;;;4.07;;
18302;SDS011;9277;37.980;23.748;2023-07-16T13:28:52;4.07;;;3.17;;
18302;SDS011;9277;37.980;23.748;2023-07-16T13:31:20;5.95;;;3.63;;
18302;SDS011;9277;37.980;23.748;2023-07-16T13:33:47;3.30;;;2.90;;
18302;SDS011;9277;37.980;23.748;2023-07-16T13:36:14;4.05;;;3.00;;
18302;SDS011;9277;37.980;23.748;2023-07-16T13:38:40;4.90;;;3.42;;
18302;SDS011;9277;37.980;23.748;2023-07-16T13:41:07;3.08;;;2.88;;
18302;SDS011;9277;37.980;23.748;2023-07-16T13:43:34;3.08;;;2.75;;
18302;SDS011;9277;37.980;23.748;2023-07-16T13:46:01;4.93;;;3.20;;
18302;SDS011;9277;37.980;23.748;2023-07-16T13:48:29;4.53;;;2.80;;
18302;SDS011;9277;37.980;23.748;2023-07-16T13:50:56;7.97;;;3.50;;
18302;SDS011;9277;37.980;23.748;2023-07-16T13:53:23;7.35;;;3.20;;
18302;SDS011;9277;37.980;23.748;2023-07-16T13:55:49;3.97;;;2.78;;
18302;SDS011;9277;37.980;23.748;2023-07-16T13:58:16;5.55;;;3.13;;
18302;SDS011;9277;37.980;23.748;2023-07-16T14:00:43;3.05;;;2.75;;
18302;SDS011;9277;37.980;23.748;2023-07-16T14:03:10;4.55;;;3.42;;
18302;SDS011;9277;37.980;23.748;2023-07-16T14:05:38;3.70;;;3.03;;
18302;SDS011;9277;37.980;23.748;2023-07-16T14:08:05;6.80;;;3.35;;
18302;SDS011;9277;37.980;23.748;2023-07-16T14:10:32;4.10;;;3.00;;
18302;SDS011;9277;37.980;23.748;2023-07-16T14:12:59;7.20;;;2.70;;
18302;SDS011;9277;37.980;23.748;2023-07-16T14:15:25;3.97;;;3.42;;
18302;SDS011;9277;37.980;23.748;2023-07-16T14:17:52;6.07;;;3.05;;
18302;SDS011;9277;37.980;23.748;2023-07-16T14:20:19;3.42;;;2.75;;
18302;SDS011;9277;37.980;23.748;2023-07-16T14:22:47;3.85;;;2.65;;
18302;SDS011;9277;37.980;23.748;2023-07-16T14:25:14;4.28;;;2.92;;
18302;SDS011;9277;37.980;23.748;2023-07-16T14:27:41;3.53;;;3.03;;
18302;SDS011;9277;37.980;23.748;2023-07-16T14:30:08;5.45;;;3.78;;
18302;SDS011;9277;37.980;23.748;2023-07-16T14:32:35;4.90;;;3.28;;
18302;SDS011;9277;37.980;23.748;2023-07-16T14:35:02;3.65;;;3.20;;
18302;SDS011;9277;37.980;23.748;2023-07-16T14:37:30;6.05;;;3.00;;
18302;SDS011;9277;37.980;23.748;2023-07-16T14:39:58;4.65;;;3.17;;
18302;SDS011;9277;37.980;23.748;2023-07-16T14:42:25;7.53;;;3.60;;
18302;SDS011;9277;37.980;23.748;2023-07-16T14:44:51;3.72;;;3.17;;
18302;SDS011;9277;37.980;23.748;2023-07-16T14:47:18;5.43;;;2.90;;
18302;SDS011;9277;37.980;23.748;2023-07-16T14:49:45;3.03;;;2.80;;
18302;SDS011;9277;37.980;23.748;2023-07-16T14:52:11;3.30;;;3.00;;
18302;SDS011;9277;37.980;23.748;2023-07-16T14:54:38;4.32;;;3.00;;